AirNav   Pilot Hours Calculator
 
 573 users online  

78OH Valley City Flying Club Airport
Valley City, Ohio, USA

GOING TO VALLEY CITY?


FAA INFORMATION EFFECTIVE 11 AUGUST 2022

Location

FAA Identifier: 78OH
Lat/Long: 41-15-26.7967N 081-58-09.4798W
41-15.446612N 081-58.157997W
41.2574435,-81.9692999
(estimated)
Elevation: 867 ft. / 264 m (estimated)
From city: 2 miles NW of VALLEY CITY, OH
Time zone: UTC -4 (UTC -5 during Standard Time)
Zip code: 44280

Airport Operations

Airport use: Private use. Permission required prior to landing
Activation date: 10/1971
Control tower: no
ARTCC: CLEVELAND CENTER
FSS: CLEVELAND FLIGHT SERVICE STATION
Attendance: UNATNDD
Wind indicator: yes
Segmented circle: no
Lights: ACTVT LIRL RWY 18/36 & 05/23 - CALL AMGR.

Airport Communications

CTAF: 122.9
WX ASOS at CLE (10 nm NE): PHONE 216-416-2729
WX ASOS at LPR (11 nm NW): 121.425 (440-323-7088)

Nearby radio navigation aids

VOR radial/distance  VOR name  Freq  Var
DJBr130/10.6DRYER VOR/DME113.6005W
ACOr289/35.8AKRON VOR/DME114.4004W
MFDr053/36.5MANSFIELD VORTAC108.8003W
BSVr326/39.4BRIGGS VOR/DME112.4004W
CXRr252/39.5CHARDON VOR/DME112.7005W

 
NDB name  Hdg/Dist  Freq  Var  ID
LAKELAND234/36.826308WLQL .-.. --.- .-..

Airport Services

Airframe service: MAJOR
Powerplant service: MAJOR

Runway Information

Runway 18/36

Dimensions: 2300 x 100 ft. / 701 x 30 m
Surface: turf
Runway edge lights: low intensity
RUNWAY 18  RUNWAY 36
Latitude: 41-15.579833N41-15.201000N
Longitude: 081-58.114833W081-58.119500W
Elevation: 858.0 ft.867.0 ft.
Traffic pattern: leftleft
Runway heading: 181 true001 true
Obstructions: plinenone

Runway 5/23

Dimensions: 1800 x 50 ft. / 549 x 15 m
Surface: turf
Runway edge lights: low intensity
RUNWAY 5  RUNWAY 23
Latitude: 41-15.430000N41-15.606833N
Longitude: 081-58.367833W081-58.052500W
Elevation: 860.0 ft.855.0 ft.
Traffic pattern: leftleft
Runway heading: 053 true233 true
Obstructions: nonepline

Airport Ownership and Management from official FAA records

Ownership: Privately-owned
Owner: JACK W TAFFE
234 W RIVER RD
VALLEY CITY, OH 44280-9457
Phone 216-483-3954
Manager: JACK W TAFFE
234 W RIVER RD
VALLEY CITY, OH 44280-9457
Phone 216-483-3954

Airport Operational Statistics

Aircraft based on the field: 15
Single engine airplanes: 15
    

Additional Remarks

FOR CD CTC CLEVELAND APCH AT 216-352-2323.

Instrument Procedures

There are no published instrument procedures at 78OH.

Some nearby airports with instrument procedures:

1G1 - Elyria Airport (7 nm NW)
KCLE - Cleveland-Hopkins International Airport (10 nm NE)
KLPR - Lorain County Regional Airport (11 nm NW)
1G5 - Medina Municipal Airport (12 nm SE)
3G3 - Wadsworth Municipal Airport (18 nm SE)
 
Loc | Ops | Rwys | IFR | FBO | Links
Com | Nav | Svcs | Stats | Notes
Area around 78OH (Valley City Flying Club Airport)
 
Road maps at: MapQuest Bing Google
 
Aerial photo
WARNING: Photo may not be current or correct
Aerial photo of 78OH (Valley City Flying Club Airport)
Do you have a better or more recent aerial photo of Valley City Flying Club Airport that you would like to share? If so, please send us your photo.

 
Sectional chart

 
Airport distance calculator
Flying to Valley City Flying Club Airport? Find the distance to fly.

From to 78OH

Sunrise and sunset
Times for 18-Aug-2022
 Local
(UTC-4)
 Zulu
(UTC)
Morning civil twilight06:1210:12
Sunrise06:4110:41
Sunset20:2200:22
Evening civil twilight20:5200:52

Current date and time
Zulu (UTC)  18-Aug-2022 07:37:55
Local (UTC-4)  18-Aug-2022 03:37:55
 
METAR
KCLE 
11nm NE 
180651Z 00000KT 10SM FEW250 17/15 A3001 RMK AO2 SLP172 T01720150
KLPR 
11nm NW 
180659Z AUTO 24003KT 3SM BR CLR 14/13 A3003 RMK AO2 T01440128
KBKL 
21nm NE 
180653Z 16003KT 10SM CLR 19/14 A3001 RMK AO2 SLP158 T01940144
TAF
KCLE 
11nm NE 
180520Z 1806/1912 VRB03KT P6SM SCT250
NOTAMs
Click for the latest NOTAMs
NOTAMs are issued by the DoD/FAA and will open in a separate window not controlled by AirNav.

 

 
 

Would you like to see your business listed on this page?

 If your business provides an interesting product or service to pilots, flight crews, aircraft, or users of the Valley City Flying Club Airport, you should consider listing it here.  To start the listing process, click on the button below
 
Add a business
 

Other Pages about Valley City Flying Club Airport

Update a link
 
Copyright © AirNav, LLC. All rights reserved. Privacy Policy  Contact